sensor_id;sensor_type;location;lat;lon;timestamp;P1;durP1;ratioP1;P2;durP2;ratioP2
51272;SDS011;37345;59.828;30.328;2022-12-18T00:01:15;14.10;;;7.55;;
51272;SDS011;37345;59.828;30.328;2022-12-18T00:03:41;16.05;;;7.40;;
51272;SDS011;37345;59.828;30.328;2022-12-18T00:06:07;17.27;;;7.88;;
51272;SDS011;37345;59.828;30.328;2022-12-18T00:08:34;15.63;;;7.85;;
51272;SDS011;37345;59.828;30.328;2022-12-18T00:11:04;18.00;;;7.80;;
51272;SDS011;37345;59.828;30.328;2022-12-18T00:13:30;16.65;;;8.20;;
51272;SDS011;37345;59.828;30.328;2022-12-18T00:16:01;15.07;;;7.70;;
51272;SDS011;37345;59.828;30.328;2022-12-18T00:18:27;16.40;;;8.40;;
51272;SDS011;37345;59.828;30.328;2022-12-18T00:20:53;14.38;;;7.68;;
51272;SDS011;37345;59.828;30.328;2022-12-18T00:23:19;14.25;;;7.70;;
51272;SDS011;37345;59.828;30.328;2022-12-18T00:25:45;14.15;;;7.47;;
51272;SDS011;37345;59.828;30.328;2022-12-18T00:28:11;15.52;;;7.50;;
51272;SDS011;37345;59.828;30.328;2022-12-18T00:30:38;17.10;;;7.82;;
51272;SDS011;37345;59.828;30.328;2022-12-18T00:33:04;13.40;;;7.38;;
51272;SDS011;37345;59.828;30.328;2022-12-18T00:35:31;12.90;;;6.82;;
51272;SDS011;37345;59.828;30.328;2022-12-18T00:37:57;17.23;;;8.00;;
51272;SDS011;37345;59.828;30.328;2022-12-18T00:40:23;13.57;;;7.32;;
51272;SDS011;37345;59.828;30.328;2022-12-18T00:42:49;16.70;;;8.18;;
51272;SDS011;37345;59.828;30.328;2022-12-18T00:45:22;11.80;;;6.97;;
51272;SDS011;37345;59.828;30.328;2022-12-18T00:47:48;13.20;;;7.55;;
51272;SDS011;37345;59.828;30.328;2022-12-18T00:50:15;14.45;;;6.60;;
51272;SDS011;37345;59.828;30.328;2022-12-18T00:52:41;13.40;;;7.05;;
51272;SDS011;37345;59.828;30.328;2022-12-18T00:55:07;14.57;;;6.78;;
51272;SDS011;37345;59.828;30.328;2022-12-18T00:57:34;13.10;;;6.93;;
51272;SDS011;37345;59.828;30.328;2022-12-18T01:00:00;13.95;;;7.28;;
51272;SDS011;37345;59.828;30.328;2022-12-18T01:02:26;13.23;;;6.60;;
51272;SDS011;37345;59.828;30.328;2022-12-18T01:04:52;13.02;;;7.10;;
51272;SDS011;37345;59.828;30.328;2022-12-18T01:07:19;12.88;;;6.65;;
51272;SDS011;37345;59.828;30.328;2022-12-18T01:09:45;13.25;;;6.65;;
51272;SDS011;37345;59.828;30.328;2022-12-18T01:12:11;18.13;;;8.23;;
51272;SDS011;37345;59.828;30.328;2022-12-18T01:14:37;12.63;;;5.82;;
51272;SDS011;37345;59.828;30.328;2022-12-18T01:17:03;11.07;;;6.13;;
51272;SDS011;37345;59.828;30.328;2022-12-18T01:19:29;13.30;;;6.88;;
51272;SDS011;37345;59.828;30.328;2022-12-18T01:21:56;13.20;;;7.03;;
51272;SDS011;37345;59.828;30.328;2022-12-18T01:24:22;12.25;;;6.57;;
51272;SDS011;37345;59.828;30.328;2022-12-18T01:26:48;13.55;;;6.80;;
51272;SDS011;37345;59.828;30.328;2022-12-18T01:29:15;15.90;;;7.25;;
51272;SDS011;37345;59.828;30.328;2022-12-18T01:31:41;14.40;;;7.57;;
51272;SDS011;37345;59.828;30.328;2022-12-18T01:34:07;13.93;;;6.77;;
51272;SDS011;37345;59.828;30.328;2022-12-18T01:36:34;12.13;;;6.35;;
51272;SDS011;37345;59.828;30.328;2022-12-18T01:39:02;17.65;;;7.55;;
51272;SDS011;37345;59.828;30.328;2022-12-18T01:41:30;15.30;;;7.80;;
51272;SDS011;37345;59.828;30.328;2022-12-18T01:47:01;14.70;;;7.03;;
51272;SDS011;37345;59.828;30.328;2022-12-18T01:49:27;13.50;;;7.15;;
51272;SDS011;37345;59.828;30.328;2022-12-18T01:51:53;15.43;;;7.37;;
51272;SDS011;37345;59.828;30.328;2022-12-18T01:54:19;14.38;;;6.95;;
51272;SDS011;37345;59.828;30.328;2022-12-18T01:56:46;14.43;;;6.88;;
51272;SDS011;37345;59.828;30.328;2022-12-18T01:59:12;15.18;;;7.10;;
51272;SDS011;37345;59.828;30.328;2022-12-18T02:01:38;14.13;;;7.88;;
51272;SDS011;37345;59.828;30.328;2022-12-18T02:04:25;16.25;;;8.65;;
51272;SDS011;37345;59.828;30.328;2022-12-18T02:07:03;14.57;;;8.57;;
51272;SDS011;37345;59.828;30.328;2022-12-18T02:09:33;17.27;;;8.35;;
51272;SDS011;37345;59.828;30.328;2022-12-18T02:12:17;14.20;;;7.75;;
51272;SDS011;37345;59.828;30.328;2022-12-18T02:14:46;15.85;;;7.90;;
51272;SDS011;37345;59.828;30.328;2022-12-18T02:17:22;15.30;;;7.82;;
51272;SDS011;37345;59.828;30.328;2022-12-18T02:27:24;13.80;;;7.00;;
51272;SDS011;37345;59.828;30.328;2022-12-18T02:29:51;16.10;;;7.95;;
51272;SDS011;37345;59.828;30.328;2022-12-18T02:32:22;13.70;;;8.07;;
51272;SDS011;37345;59.828;30.328;2022-12-18T02:34:49;11.77;;;6.73;;
51272;SDS011;37345;59.828;30.328;2022-12-18T02:37:17;16.25;;;8.27;;
51272;SDS011;37345;59.828;30.328;2022-12-18T02:39:44;16.05;;;8.88;;
51272;SDS011;37345;59.828;30.328;2022-12-18T02:42:12;17.48;;;8.00;;
51272;SDS011;37345;59.828;30.328;2022-12-18T02:44:41;15.57;;;7.85;;
51272;SDS011;37345;59.828;30.328;2022-12-18T02:47:09;15.30;;;8.07;;
51272;SDS011;37345;59.828;30.328;2022-12-18T03:00:06;17.92;;;8.43;;
51272;SDS011;37345;59.828;30.328;2022-12-18T03:07:58;15.20;;;7.22;;
51272;SDS011;37345;59.828;30.328;2022-12-18T03:10:28;13.20;;;6.72;;
51272;SDS011;37345;59.828;30.328;2022-12-18T03:13:00;15.45;;;7.38;;
51272;SDS011;37345;59.828;30.328;2022-12-18T03:15:31;11.60;;;6.57;;
51272;SDS011;37345;59.828;30.328;2022-12-18T03:18:05;15.10;;;8.20;;
51272;SDS011;37345;59.828;30.328;2022-12-18T03:20:32;16.02;;;7.90;;
51272;SDS011;37345;59.828;30.328;2022-12-18T03:23:11;14.35;;;7.88;;
51272;SDS011;37345;59.828;30.328;2022-12-18T03:25:39;17.95;;;9.20;;
51272;SDS011;37345;59.828;30.328;2022-12-18T03:28:06;17.20;;;8.37;;
51272;SDS011;37345;59.828;30.328;2022-12-18T03:30:34;13.23;;;7.07;;
51272;SDS011;37345;59.828;30.328;2022-12-18T03:33:10;15.98;;;8.45;;
51272;SDS011;37345;59.828;30.328;2022-12-18T03:35:39;16.80;;;8.75;;
51272;SDS011;37345;59.828;30.328;2022-12-18T03:38:06;15.45;;;7.93;;
51272;SDS011;37345;59.828;30.328;2022-12-18T03:40:35;17.13;;;8.60;;
51272;SDS011;37345;59.828;30.328;2022-12-18T03:43:08;17.30;;;8.60;;
51272;SDS011;37345;59.828;30.328;2022-12-18T03:45:36;19.35;;;9.40;;
51272;SDS011;37345;59.828;30.328;2022-12-18T03:48:08;19.60;;;9.52;;
51272;SDS011;37345;59.828;30.328;2022-12-18T03:50:40;16.40;;;8.23;;
51272;SDS011;37345;59.828;30.328;2022-12-18T03:53:29;16.02;;;9.05;;
51272;SDS011;37345;59.828;30.328;2022-12-18T03:55:57;14.18;;;8.73;;
51272;SDS011;37345;59.828;30.328;2022-12-18T03:58:25;17.48;;;8.85;;
51272;SDS011;37345;59.828;30.328;2022-12-18T04:00:52;19.98;;;9.75;;
51272;SDS011;37345;59.828;30.328;2022-12-18T04:03:20;19.05;;;10.43;;
51272;SDS011;37345;59.828;30.328;2022-12-18T04:05:48;20.10;;;10.18;;
51272;SDS011;37345;59.828;30.328;2022-12-18T04:08:15;19.15;;;10.23;;
51272;SDS011;37345;59.828;30.328;2022-12-18T04:10:42;20.00;;;10.75;;
51272;SDS011;37345;59.828;30.328;2022-12-18T04:13:08;19.67;;;10.75;;
51272;SDS011;37345;59.828;30.328;2022-12-18T04:15:36;18.63;;;10.02;;
51272;SDS011;37345;59.828;30.328;2022-12-18T04:18:02;26.42;;;11.82;;
51272;SDS011;37345;59.828;30.328;2022-12-18T04:20:29;19.35;;;11.30;;
51272;SDS011;37345;59.828;30.328;2022-12-18T04:22:55;23.73;;;12.25;;
51272;SDS011;37345;59.828;30.328;2022-12-18T04:25:21;23.08;;;12.45;;
51272;SDS011;37345;59.828;30.328;2022-12-18T04:27:47;24.15;;;12.95;;
51272;SDS011;37345;59.828;30.328;2022-12-18T04:30:13;21.48;;;11.43;;
51272;SDS011;37345;59.828;30.328;2022-12-18T04:32:39;21.67;;;12.15;;
51272;SDS011;37345;59.828;30.328;2022-12-18T04:35:06;26.73;;;11.13;;
51272;SDS011;37345;59.828;30.328;2022-12-18T04:37:35;22.40;;;11.15;;
51272;SDS011;37345;59.828;30.328;2022-12-18T04:40:01;22.17;;;11.32;;
51272;SDS011;37345;59.828;30.328;2022-12-18T04:42:27;20.27;;;10.57;;
51272;SDS011;37345;59.828;30.328;2022-12-18T04:44:53;20.27;;;10.65;;
51272;SDS011;37345;59.828;30.328;2022-12-18T04:47:20;23.00;;;11.70;;
51272;SDS011;37345;59.828;30.328;2022-12-18T04:49:46;22.75;;;11.25;;
51272;SDS011;37345;59.828;30.328;2022-12-18T04:52:12;23.90;;;11.45;;
51272;SDS011;37345;59.828;30.328;2022-12-18T04:54:38;21.57;;;11.67;;
51272;SDS011;37345;59.828;30.328;2022-12-18T04:57:04;19.58;;;9.82;;
51272;SDS011;37345;59.828;30.328;2022-12-18T04:59:30;20.98;;;10.38;;
51272;SDS011;37345;59.828;30.328;2022-12-18T05:01:57;20.92;;;10.90;;
51272;SDS011;37345;59.828;30.328;2022-12-18T05:04:23;22.00;;;11.48;;
51272;SDS011;37345;59.828;30.328;2022-12-18T05:06:49;21.42;;;9.43;;
51272;SDS011;37345;59.828;30.328;2022-12-18T05:09:15;18.55;;;9.00;;
51272;SDS011;37345;59.828;30.328;2022-12-18T05:11:41;17.85;;;9.32;;
51272;SDS011;37345;59.828;30.328;2022-12-18T05:14:07;17.98;;;8.20;;
51272;SDS011;37345;59.828;30.328;2022-12-18T05:16:33;16.33;;;8.13;;
51272;SDS011;37345;59.828;30.328;2022-12-18T05:19:00;18.33;;;8.52;;
51272;SDS011;37345;59.828;30.328;2022-12-18T05:21:26;18.02;;;8.57;;
51272;SDS011;37345;59.828;30.328;2022-12-18T05:23:52;16.52;;;8.43;;
51272;SDS011;37345;59.828;30.328;2022-12-18T05:26:18;17.27;;;8.38;;
51272;SDS011;37345;59.828;30.328;2022-12-18T05:28:44;19.20;;;9.15;;
51272;SDS011;37345;59.828;30.328;2022-12-18T05:31:11;16.70;;;8.50;;
51272;SDS011;37345;59.828;30.328;2022-12-18T05:33:37;20.52;;;9.15;;
51272;SDS011;37345;59.828;30.328;2022-12-18T05:36:05;16.47;;;8.43;;
51272;SDS011;37345;59.828;30.328;2022-12-18T05:38:32;18.47;;;8.80;;
51272;SDS011;37345;59.828;30.328;2022-12-18T05:40:58;17.50;;;7.75;;
51272;SDS011;37345;59.828;30.328;2022-12-18T05:43:25;20.67;;;8.68;;
51272;SDS011;37345;59.828;30.328;2022-12-18T05:45:51;19.10;;;9.05;;
51272;SDS011;37345;59.828;30.328;2022-12-18T05:48:18;17.88;;;9.40;;
51272;SDS011;37345;59.828;30.328;2022-12-18T05:50:45;16.92;;;7.53;;
51272;SDS011;37345;59.828;30.328;2022-12-18T05:53:12;17.10;;;7.80;;
51272;SDS011;37345;59.828;30.328;2022-12-18T05:55:39;17.10;;;8.65;;
51272;SDS011;37345;59.828;30.328;2022-12-18T05:58:06;20.08;;;9.23;;
51272;SDS011;37345;59.828;30.328;2022-12-18T06:00:33;17.98;;;9.23;;
51272;SDS011;37345;59.828;30.328;2022-12-18T06:03:00;20.50;;;8.95;;
51272;SDS011;37345;59.828;30.328;2022-12-18T06:05:26;19.40;;;9.27;;
51272;SDS011;37345;59.828;30.328;2022-12-18T06:07:52;18.50;;;9.02;;
51272;SDS011;37345;59.828;30.328;2022-12-18T06:10:18;16.02;;;8.07;;
51272;SDS011;37345;59.828;30.328;2022-12-18T06:12:45;21.80;;;9.30;;
51272;SDS011;37345;59.828;30.328;2022-12-18T06:15:11;16.02;;;7.60;;
51272;SDS011;37345;59.828;30.328;2022-12-18T06:17:37;19.80;;;9.35;;
51272;SDS011;37345;59.828;30.328;2022-12-18T06:20:04;25.92;;;10.55;;
51272;SDS011;37345;59.828;30.328;2022-12-18T06:22:31;21.27;;;9.98;;
51272;SDS011;37345;59.828;30.328;2022-12-18T06:24:57;23.80;;;11.38;;
51272;SDS011;37345;59.828;30.328;2022-12-18T06:27:24;24.15;;;11.00;;
51272;SDS011;37345;59.828;30.328;2022-12-18T06:29:50;21.05;;;9.57;;
51272;SDS011;37345;59.828;30.328;2022-12-18T06:32:16;25.42;;;11.80;;
51272;SDS011;37345;59.828;30.328;2022-12-18T06:34:43;31.02;;;13.20;;
51272;SDS011;37345;59.828;30.328;2022-12-18T06:37:09;31.10;;;12.27;;
51272;SDS011;37345;59.828;30.328;2022-12-18T06:39:35;31.30;;;12.88;;
51272;SDS011;37345;59.828;30.328;2022-12-18T06:42:01;27.27;;;12.35;;
51272;SDS011;37345;59.828;30.328;2022-12-18T06:44:27;25.75;;;12.15;;
51272;SDS011;37345;59.828;30.328;2022-12-18T06:46:53;29.95;;;12.25;;
51272;SDS011;37345;59.828;30.328;2022-12-18T06:49:19;32.83;;;13.93;;
51272;SDS011;37345;59.828;30.328;2022-12-18T06:51:46;27.33;;;11.48;;
51272;SDS011;37345;59.828;30.328;2022-12-18T06:54:12;21.30;;;8.80;;
51272;SDS011;37345;59.828;30.328;2022-12-18T06:56:38;26.33;;;10.52;;
51272;SDS011;37345;59.828;30.328;2022-12-18T06:59:04;11.23;;;5.82;;
51272;SDS011;37345;59.828;30.328;2022-12-18T07:01:30;26.48;;;10.93;;
51272;SDS011;37345;59.828;30.328;2022-12-18T07:03:57;29.45;;;11.88;;
51272;SDS011;37345;59.828;30.328;2022-12-18T07:06:24;26.30;;;12.02;;
51272;SDS011;37345;59.828;30.328;2022-12-18T07:08:50;23.15;;;9.80;;
51272;SDS011;37345;59.828;30.328;2022-12-18T07:11:17;28.35;;;11.15;;
51272;SDS011;37345;59.828;30.328;2022-12-18T07:13:44;28.73;;;12.73;;
51272;SDS011;37345;59.828;30.328;2022-12-18T07:16:13;23.13;;;10.63;;
51272;SDS011;37345;59.828;30.328;2022-12-18T07:18:40;19.63;;;9.45;;
51272;SDS011;37345;59.828;30.328;2022-12-18T07:21:07;25.75;;;12.98;;
51272;SDS011;37345;59.828;30.328;2022-12-18T07:23:33;35.97;;;14.77;;
51272;SDS011;37345;59.828;30.328;2022-12-18T07:26:03;34.67;;;15.65;;
51272;SDS011;37345;59.828;30.328;2022-12-18T07:28:30;40.40;;;17.65;;
51272;SDS011;37345;59.828;30.328;2022-12-18T07:30:56;41.72;;;17.98;;
51272;SDS011;37345;59.828;30.328;2022-12-18T07:33:23;42.78;;;18.17;;
51272;SDS011;37345;59.828;30.328;2022-12-18T07:35:50;45.63;;;20.60;;
51272;SDS011;37345;59.828;30.328;2022-12-18T07:38:16;51.17;;;20.33;;
51272;SDS011;37345;59.828;30.328;2022-12-18T07:40:42;50.28;;;21.42;;
51272;SDS011;37345;59.828;30.328;2022-12-18T07:43:08;41.42;;;18.35;;
51272;SDS011;37345;59.828;30.328;2022-12-18T07:45:34;42.03;;;17.17;;
51272;SDS011;37345;59.828;30.328;2022-12-18T07:48:03;35.22;;;13.82;;
51272;SDS011;37345;59.828;30.328;2022-12-18T07:50:30;43.30;;;17.95;;
51272;SDS011;37345;59.828;30.328;2022-12-18T07:52:56;42.42;;;17.63;;
51272;SDS011;37345;59.828;30.328;2022-12-18T07:55:22;41.63;;;17.47;;
51272;SDS011;37345;59.828;30.328;2022-12-18T07:57:49;36.80;;;16.50;;
51272;SDS011;37345;59.828;30.328;2022-12-18T08:00:15;33.15;;;15.00;;
51272;SDS011;37345;59.828;30.328;2022-12-18T08:02:41;39.70;;;17.00;;
51272;SDS011;37345;59.828;30.328;2022-12-18T08:05:07;25.02;;;8.90;;
51272;SDS011;37345;59.828;30.328;2022-12-18T08:07:34;33.38;;;13.27;;
51272;SDS011;37345;59.828;30.328;2022-12-18T08:10:00;23.77;;;10.77;;
51272;SDS011;37345;59.828;30.328;2022-12-18T08:12:26;26.90;;;11.10;;
51272;SDS011;37345;59.828;30.328;2022-12-18T08:14:52;37.78;;;14.80;;
51272;SDS011;37345;59.828;30.328;2022-12-18T08:17:19;27.98;;;11.68;;
51272;SDS011;37345;59.828;30.328;2022-12-18T08:19:45;27.42;;;10.82;;
51272;SDS011;37345;59.828;30.328;2022-12-18T08:22:11;26.60;;;11.63;;
51272;SDS011;37345;59.828;30.328;2022-12-18T08:24:38;27.60;;;11.27;;
51272;SDS011;37345;59.828;30.328;2022-12-18T08:27:04;22.45;;;10.13;;
51272;SDS011;37345;59.828;30.328;2022-12-18T08:29:33;26.00;;;12.02;;
51272;SDS011;37345;59.828;30.328;2022-12-18T08:31:59;27.48;;;11.70;;
51272;SDS011;37345;59.828;30.328;2022-12-18T08:34:25;22.70;;;10.20;;
51272;SDS011;37345;59.828;30.328;2022-12-18T08:36:51;26.33;;;10.68;;
51272;SDS011;37345;59.828;30.328;2022-12-18T08:39:17;24.55;;;11.32;;
51272;SDS011;37345;59.828;30.328;2022-12-18T08:41:43;24.33;;;10.43;;
51272;SDS011;37345;59.828;30.328;2022-12-18T08:44:29;21.58;;;10.23;;
51272;SDS011;37345;59.828;30.328;2022-12-18T08:47:05;20.67;;;9.60;;
51272;SDS011;37345;59.828;30.328;2022-12-18T08:49:31;22.77;;;9.60;;
51272;SDS011;37345;59.828;30.328;2022-12-18T08:51:58;14.75;;;6.43;;
51272;SDS011;37345;59.828;30.328;2022-12-18T08:54:24;18.13;;;7.95;;
51272;SDS011;37345;59.828;30.328;2022-12-18T08:56:51;19.38;;;7.85;;
51272;SDS011;37345;59.828;30.328;2022-12-18T08:59:17;20.33;;;9.13;;
51272;SDS011;37345;59.828;30.328;2022-12-18T09:01:43;21.45;;;9.32;;
51272;SDS011;37345;59.828;30.328;2022-12-18T09:04:10;22.88;;;8.90;;
51272;SDS011;37345;59.828;30.328;2022-12-18T09:06:36;19.15;;;8.57;;
51272;SDS011;37345;59.828;30.328;2022-12-18T09:09:03;20.35;;;8.07;;
51272;SDS011;37345;59.828;30.328;2022-12-18T09:11:30;20.40;;;9.10;;
51272;SDS011;37345;59.828;30.328;2022-12-18T09:13:57;18.25;;;7.95;;
51272;SDS011;37345;59.828;30.328;2022-12-18T09:16:24;14.98;;;6.40;;
51272;SDS011;37345;59.828;30.328;2022-12-18T09:18:50;19.67;;;8.43;;
51272;SDS011;37345;59.828;30.328;2022-12-18T09:21:19;13.68;;;6.97;;
51272;SDS011;37345;59.828;30.328;2022-12-18T09:23:52;18.60;;;8.40;;
51272;SDS011;37345;59.828;30.328;2022-12-18T09:26:18;20.38;;;8.55;;
51272;SDS011;37345;59.828;30.328;2022-12-18T09:28:44;17.52;;;7.38;;
51272;SDS011;37345;59.828;30.328;2022-12-18T09:31:11;18.48;;;8.68;;
51272;SDS011;37345;59.828;30.328;2022-12-18T09:33:38;19.30;;;7.93;;
51272;SDS011;37345;59.828;30.328;2022-12-18T09:36:05;14.70;;;7.72;;
51272;SDS011;37345;59.828;30.328;2022-12-18T09:38:32;17.53;;;7.33;;
51272;SDS011;37345;59.828;30.328;2022-12-18T09:41:44;13.73;;;7.00;;
51272;SDS011;37345;59.828;30.328;2022-12-18T09:43:46;13.65;;;5.78;;
51272;SDS011;37345;59.828;30.328;2022-12-18T09:46:17;13.90;;;6.73;;
51272;SDS011;37345;59.828;30.328;2022-12-18T09:48:46;16.67;;;7.45;;
51272;SDS011;37345;59.828;30.328;2022-12-18T09:51:18;14.05;;;7.15;;
51272;SDS011;37345;59.828;30.328;2022-12-18T09:53:46;14.23;;;7.03;;
51272;SDS011;37345;59.828;30.328;2022-12-18T09:56:16;14.57;;;6.82;;
51272;SDS011;37345;59.828;30.328;2022-12-18T09:58:48;15.05;;;6.28;;
51272;SDS011;37345;59.828;30.328;2022-12-18T10:01:15;13.57;;;7.05;;
51272;SDS011;37345;59.828;30.328;2022-12-18T10:03:43;13.30;;;6.10;;
51272;SDS011;37345;59.828;30.328;2022-12-18T10:06:20;14.55;;;6.47;;
51272;SDS011;37345;59.828;30.328;2022-12-18T10:08:54;13.98;;;6.65;;
51272;SDS011;37345;59.828;30.328;2022-12-18T10:19:38;12.82;;;5.80;;
51272;SDS011;37345;59.828;30.328;2022-12-18T10:24:54;13.93;;;5.78;;
51272;SDS011;37345;59.828;30.328;2022-12-18T10:27:22;13.43;;;6.53;;
51272;SDS011;37345;59.828;30.328;2022-12-18T10:29:49;13.27;;;6.30;;
51272;SDS011;37345;59.828;30.328;2022-12-18T10:32:24;14.98;;;6.90;;
51272;SDS011;37345;59.828;30.328;2022-12-18T10:34:51;14.68;;;6.78;;
51272;SDS011;37345;59.828;30.328;2022-12-18T10:37:19;19.95;;;7.70;;
51272;SDS011;37345;59.828;30.328;2022-12-18T10:40:07;13.85;;;6.88;;
51272;SDS011;37345;59.828;30.328;2022-12-18T10:42:33;11.40;;;5.65;;
51272;SDS011;37345;59.828;30.328;2022-12-18T10:45:15;16.40;;;6.63;;
51272;SDS011;37345;59.828;30.328;2022-12-18T10:47:46;13.05;;;6.40;;
51272;SDS011;37345;59.828;30.328;2022-12-18T10:50:33;14.85;;;5.18;;
51272;SDS011;37345;59.828;30.328;2022-12-18T10:53:00;17.02;;;7.53;;
51272;SDS011;37345;59.828;30.328;2022-12-18T10:55:27;13.52;;;4.97;;
51272;SDS011;37345;59.828;30.328;2022-12-18T10:57:56;14.38;;;6.97;;
51272;SDS011;37345;59.828;30.328;2022-12-18T11:00:38;16.75;;;7.03;;
51272;SDS011;37345;59.828;30.328;2022-12-18T11:03:28;17.45;;;7.07;;
51272;SDS011;37345;59.828;30.328;2022-12-18T11:05:52;17.40;;;7.22;;
51272;SDS011;37345;59.828;30.328;2022-12-18T11:08:27;18.48;;;6.47;;
51272;SDS011;37345;59.828;30.328;2022-12-18T11:10:53;20.90;;;7.50;;
51272;SDS011;37345;59.828;30.328;2022-12-18T11:13:20;15.23;;;7.40;;
51272;SDS011;37345;59.828;30.328;2022-12-18T11:15:47;15.77;;;7.05;;
51272;SDS011;37345;59.828;30.328;2022-12-18T11:18:22;18.30;;;8.07;;
51272;SDS011;37345;59.828;30.328;2022-12-18T11:20:51;18.10;;;7.70;;
51272;SDS011;37345;59.828;30.328;2022-12-18T11:23:19;15.35;;;7.30;;
51272;SDS011;37345;59.828;30.328;2022-12-18T11:25:54;18.75;;;7.80;;
51272;SDS011;37345;59.828;30.328;2022-12-18T11:31:26;20.08;;;7.95;;
51272;SDS011;37345;59.828;30.328;2022-12-18T11:34:00;18.13;;;7.07;;
51272;SDS011;37345;59.828;30.328;2022-12-18T11:36:28;16.77;;;8.18;;
51272;SDS011;37345;59.828;30.328;2022-12-18T11:38:55;19.58;;;8.25;;
51272;SDS011;37345;59.828;30.328;2022-12-18T11:41:25;19.73;;;7.65;;
51272;SDS011;37345;59.828;30.328;2022-12-18T11:44:13;21.13;;;7.55;;
51272;SDS011;37345;59.828;30.328;2022-12-18T11:46:49;20.40;;;8.70;;
51272;SDS011;37345;59.828;30.328;2022-12-18T11:49:20;16.85;;;7.07;;
51272;SDS011;37345;59.828;30.328;2022-12-18T11:51:49;17.77;;;7.38;;
51272;SDS011;37345;59.828;30.328;2022-12-18T11:54:17;15.95;;;6.93;;
51272;SDS011;37345;59.828;30.328;2022-12-18T11:57:03;17.60;;;7.75;;
51272;SDS011;37345;59.828;30.328;2022-12-18T12:02:17;22.97;;;9.37;;
51272;SDS011;37345;59.828;30.328;2022-12-18T12:05:00;20.65;;;8.07;;
51272;SDS011;37345;59.828;30.328;2022-12-18T12:07:36;17.20;;;7.68;;
51272;SDS011;37345;59.828;30.328;2022-12-18T12:26:07;20.80;;;8.37;;
51272;SDS011;37345;59.828;30.328;2022-12-18T12:34:15;20.17;;;7.78;;
51272;SDS011;37345;59.828;30.328;2022-12-18T12:37:04;19.83;;;8.23;;
51272;SDS011;37345;59.828;30.328;2022-12-18T12:39:34;15.50;;;6.63;;
51272;SDS011;37345;59.828;30.328;2022-12-18T12:42:05;17.50;;;6.95;;
51272;SDS011;37345;59.828;30.328;2022-12-18T12:44:51;16.20;;;6.18;;
51272;SDS011;37345;59.828;30.328;2022-12-18T12:47:38;18.15;;;7.50;;
51272;SDS011;37345;59.828;30.328;2022-12-18T12:50:06;18.77;;;8.15;;
51272;SDS011;37345;59.828;30.328;2022-12-18T12:52:42;16.45;;;6.70;;
51272;SDS011;37345;59.828;30.328;2022-12-18T12:55:14;17.48;;;7.43;;
51272;SDS011;37345;59.828;30.328;2022-12-18T12:57:45;17.93;;;6.90;;
51272;SDS011;37345;59.828;30.328;2022-12-18T13:00:13;14.10;;;6.45;;
51272;SDS011;37345;59.828;30.328;2022-12-18T13:02:56;17.02;;;7.65;;
51272;SDS011;37345;59.828;30.328;2022-12-18T13:07:56;18.23;;;7.90;;
51272;SDS011;37345;59.828;30.328;2022-12-18T13:10:25;15.30;;;7.10;;
51272;SDS011;37345;59.828;30.328;2022-12-18T13:12:56;18.95;;;7.55;;
51272;SDS011;37345;59.828;30.328;2022-12-18T13:17:48;10.65;;;5.35;;
51272;SDS011;37345;59.828;30.328;2022-12-18T13:20:15;19.23;;;7.30;;
51272;SDS011;37345;59.828;30.328;2022-12-18T13:22:43;18.50;;;7.93;;
51272;SDS011;37345;59.828;30.328;2022-12-18T13:35:42;15.52;;;7.10;;
51272;SDS011;37345;59.828;30.328;2022-12-18T13:38:33;15.68;;;6.82;;
51272;SDS011;37345;59.828;30.328;2022-12-18T13:41:21;13.02;;;6.55;;
51272;SDS011;37345;59.828;30.328;2022-12-18T13:43:55;15.88;;;6.85;;
51272;SDS011;37345;59.828;30.328;2022-12-18T13:46:29;13.27;;;6.38;;
51272;SDS011;37345;59.828;30.328;2022-12-18T13:49:00;14.63;;;6.75;;
51272;SDS011;37345;59.828;30.328;2022-12-18T13:51:28;15.98;;;6.22;;
51272;SDS011;37345;59.828;30.328;2022-12-18T13:53:56;13.10;;;6.20;;
51272;SDS011;37345;59.828;30.328;2022-12-18T13:56:25;13.68;;;6.20;;
51272;SDS011;37345;59.828;30.328;2022-12-18T14:01:59;15.90;;;6.68;;
51272;SDS011;37345;59.828;30.328;2022-12-18T14:04:27;16.40;;;6.07;;
51272;SDS011;37345;59.828;30.328;2022-12-18T14:07:05;15.18;;;6.82;;
51272;SDS011;37345;59.828;30.328;2022-12-18T14:09:35;13.35;;;6.30;;
51272;SDS011;37345;59.828;30.328;2022-12-18T14:12:02;13.43;;;6.13;;
51272;SDS011;37345;59.828;30.328;2022-12-18T14:14:49;14.07;;;6.38;;
51272;SDS011;37345;59.828;30.328;2022-12-18T14:17:16;13.15;;;6.10;;
51272;SDS011;37345;59.828;30.328;2022-12-18T14:19:46;10.48;;;5.47;;
51272;SDS011;37345;59.828;30.328;2022-12-18T14:22:17;13.50;;;5.90;;
51272;SDS011;37345;59.828;30.328;2022-12-18T14:24:44;13.82;;;5.80;;
51272;SDS011;37345;59.828;30.328;2022-12-18T14:27:20;10.82;;;5.05;;
51272;SDS011;37345;59.828;30.328;2022-12-18T14:29:46;10.88;;;5.13;;
51272;SDS011;37345;59.828;30.328;2022-12-18T14:32:13;13.45;;;5.35;;
51272;SDS011;37345;59.828;30.328;2022-12-18T14:34:44;13.60;;;5.32;;
51272;SDS011;37345;59.828;30.328;2022-12-18T14:37:11;12.47;;;5.20;;
51272;SDS011;37345;59.828;30.328;2022-12-18T14:39:39;10.73;;;5.07;;
51272;SDS011;37345;59.828;30.328;2022-12-18T14:42:05;13.60;;;6.88;;
51272;SDS011;37345;59.828;30.328;2022-12-18T14:44:31;11.23;;;5.10;;
51272;SDS011;37345;59.828;30.328;2022-12-18T14:46:57;12.90;;;5.07;;
51272;SDS011;37345;59.828;30.328;2022-12-18T14:51:57;13.75;;;5.75;;
51272;SDS011;37345;59.828;30.328;2022-12-18T14:54:25;17.35;;;6.28;;
51272;SDS011;37345;59.828;30.328;2022-12-18T14:59:22;11.07;;;5.32;;
51272;SDS011;37345;59.828;30.328;2022-12-18T15:04:34;11.55;;;5.75;;
51272;SDS011;37345;59.828;30.328;2022-12-18T15:07:14;11.75;;;5.75;;
51272;SDS011;37345;59.828;30.328;2022-12-18T15:09:42;12.57;;;5.63;;
51272;SDS011;37345;59.828;30.328;2022-12-18T15:17:57;9.52;;;5.03;;
51272;SDS011;37345;59.828;30.328;2022-12-18T15:20:23;11.85;;;5.50;;
51272;SDS011;37345;59.828;30.328;2022-12-18T15:22:49;11.83;;;5.60;;
51272;SDS011;37345;59.828;30.328;2022-12-18T15:25:25;12.02;;;5.32;;
51272;SDS011;37345;59.828;30.328;2022-12-18T15:27:53;9.90;;;4.75;;
51272;SDS011;37345;59.828;30.328;2022-12-18T15:30:20;11.50;;;4.47;;
51272;SDS011;37345;59.828;30.328;2022-12-18T15:32:47;9.35;;;4.85;;
51272;SDS011;37345;59.828;30.328;2022-12-18T15:37:40;9.95;;;4.93;;
51272;SDS011;37345;59.828;30.328;2022-12-18T15:40:07;10.70;;;4.75;;
51272;SDS011;37345;59.828;30.328;2022-12-18T15:42:34;7.47;;;3.95;;
51272;SDS011;37345;59.828;30.328;2022-12-18T15:45:19;9.60;;;4.43;;
51272;SDS011;37345;59.828;30.328;2022-12-18T15:47:45;10.77;;;5.03;;
51272;SDS011;37345;59.828;30.328;2022-12-18T15:50:11;12.70;;;5.10;;
51272;SDS011;37345;59.828;30.328;2022-12-18T15:52:40;12.25;;;5.25;;
51272;SDS011;37345;59.828;30.328;2022-12-18T15:55:13;10.67;;;4.73;;
51272;SDS011;37345;59.828;30.328;2022-12-18T15:57:58;13.70;;;6.30;;
51272;SDS011;37345;59.828;30.328;2022-12-18T16:00:24;12.30;;;4.93;;
51272;SDS011;37345;59.828;30.328;2022-12-18T16:02:50;9.07;;;4.32;;
51272;SDS011;37345;59.828;30.328;2022-12-18T16:05:17;12.40;;;4.82;;
51272;SDS011;37345;59.828;30.328;2022-12-18T16:07:44;13.18;;;5.55;;